sensor_id;sensor_type;location;lat;lon;timestamp;pressure;altitude;pressure_sealevel;temperature;humidity
66021;BME280;52789;59.980;30.346;2023-04-29T00:00:44;101244.56;;;6.06;76.75
66021;BME280;52789;59.980;30.346;2023-04-29T00:03:09;101243.72;;;6.05;76.15
66021;BME280;52789;59.980;30.346;2023-04-29T00:05:35;101252.63;;;6.04;76.64
66021;BME280;52789;59.980;30.346;2023-04-29T00:08:00;101250.34;;;6.00;76.53
66021;BME280;52789;59.980;30.346;2023-04-29T00:10:26;101241.81;;;5.96;77.47
66021;BME280;52789;59.980;30.346;2023-04-29T00:12:51;101247.94;;;5.97;76.87
66021;BME280;52789;59.980;30.346;2023-04-29T00:15:17;101240.72;;;5.99;77.59
66021;BME280;52789;59.980;30.346;2023-04-29T00:17:42;101248.53;;;6.00;77.71
66021;BME280;52789;59.980;30.346;2023-04-29T00:20:09;101237.13;;;6.00;77.84
66021;BME280;52789;59.980;30.346;2023-04-29T00:22:35;101239.50;;;6.03;77.27
66021;BME280;52789;59.980;30.346;2023-04-29T00:25:01;101240.94;;;6.07;76.75
66021;BME280;52789;59.980;30.346;2023-04-29T00:27:26;101244.34;;;6.09;76.83
66021;BME280;52789;59.980;30.346;2023-04-29T00:29:52;101241.69;;;6.09;79.00
66021;BME280;52789;59.980;30.346;2023-04-29T00:32:17;101243.72;;;6.05;78.85
66021;BME280;52789;59.980;30.346;2023-04-29T00:34:43;101238.78;;;6.01;80.26
66021;BME280;52789;59.980;30.346;2023-04-29T00:37:08;101237.97;;;6.00;79.82
66021;BME280;52789;59.980;30.346;2023-04-29T00:39:33;101242.66;;;5.97;82.17
66021;BME280;52789;59.980;30.346;2023-04-29T00:41:59;101247.47;;;5.92;81.65
66021;BME280;52789;59.980;30.346;2023-04-29T00:44:24;101238.56;;;5.93;81.29
66021;BME280;52789;59.980;30.346;2023-04-29T00:46:50;101239.28;;;5.95;79.97
66021;BME280;52789;59.980;30.346;2023-04-29T00:49:15;101246.97;;;5.86;82.77
66021;BME280;52789;59.980;30.346;2023-04-29T00:51:41;101241.19;;;5.70;82.93
66021;BME280;52789;59.980;30.346;2023-04-29T00:54:06;101249.09;;;5.59;83.33
66021;BME280;52789;59.980;30.346;2023-04-29T00:56:33;101248.59;;;5.43;84.98
66021;BME280;52789;59.980;30.346;2023-04-29T00:59:00;101238.84;;;5.32;86.16
66021;BME280;52789;59.980;30.346;2023-04-29T01:01:26;101247.59;;;5.21;88.67
66021;BME280;52789;59.980;30.346;2023-04-29T01:03:51;101238.19;;;5.17;87.51
66021;BME280;52789;59.980;30.346;2023-04-29T01:09:05;101236.81;;;5.24;87.34
66021;BME280;52789;59.980;30.346;2023-04-29T01:11:34;101235.63;;;5.28;89.09
66021;BME280;52789;59.980;30.346;2023-04-29T01:14:04;101237.06;;;5.33;87.33
66021;BME280;52789;59.980;30.346;2023-04-29T01:16:33;101231.66;;;5.34;86.42
66021;BME280;52789;59.980;30.346;2023-04-29T01:19:02;101239.56;;;5.34;86.16
66021;BME280;52789;59.980;30.346;2023-04-29T01:21:31;101236.09;;;5.34;85.91
66021;BME280;52789;59.980;30.346;2023-04-29T01:23:56;101238.75;;;5.34;85.86
66021;BME280;52789;59.980;30.346;2023-04-29T01:26:22;101248.22;;;5.36;85.85
66021;BME280;52789;59.980;30.346;2023-04-29T01:41:41;101232.16;;;4.93;91.70
66021;BME280;52789;59.980;30.346;2023-04-29T01:44:07;101239.91;;;4.83;91.78
66021;BME280;52789;59.980;30.346;2023-04-29T01:46:34;101240.34;;;4.77;91.79
66021;BME280;52789;59.980;30.346;2023-04-29T01:49:00;101242.63;;;4.71;90.99
66021;BME280;52789;59.980;30.346;2023-04-29T01:51:25;101240.31;;;4.66;91.71
66021;BME280;52789;59.980;30.346;2023-04-29T01:53:52;101246.88;;;4.60;92.95
66021;BME280;52789;59.980;30.346;2023-04-29T01:56:17;101238.44;;;4.55;92.51
66021;BME280;52789;59.980;30.346;2023-04-29T01:58:43;101237.72;;;4.53;92.11
66021;BME280;52789;59.980;30.346;2023-04-29T02:01:08;101247.66;;;4.50;93.36
66021;BME280;52789;59.980;30.346;2023-04-29T02:03:34;101249.47;;;4.49;93.73
66021;BME280;52789;59.980;30.346;2023-04-29T02:06:00;101246.81;;;4.49;93.05
66021;BME280;52789;59.980;30.346;2023-04-29T02:08:26;101249.91;;;4.43;96.39
66021;BME280;52789;59.980;30.346;2023-04-29T02:10:52;101247.84;;;4.35;96.69
66021;BME280;52789;59.980;30.346;2023-04-29T02:13:18;101251.50;;;4.33;97.61
66021;BME280;52789;59.980;30.346;2023-04-29T02:15:43;101243.59;;;4.33;97.39
66021;BME280;52789;59.980;30.346;2023-04-29T02:18:08;101248.88;;;4.33;97.75
66021;BME280;52789;59.980;30.346;2023-04-29T02:20:34;101247.94;;;4.34;97.55
66021;BME280;52789;59.980;30.346;2023-04-29T02:22:59;101243.59;;;4.33;97.99
66021;BME280;52789;59.980;30.346;2023-04-29T02:25:24;101240.94;;;4.33;97.08
66021;BME280;52789;59.980;30.346;2023-04-29T02:27:50;101232.13;;;4.34;97.98
66021;BME280;52789;59.980;30.346;2023-04-29T02:30:15;101232.97;;;4.34;97.51
66021;BME280;52789;59.980;30.346;2023-04-29T02:32:41;101232.50;;;4.41;98.30
66021;BME280;52789;59.980;30.346;2023-04-29T02:35:06;101235.53;;;4.47;98.41
66021;BME280;52789;59.980;30.346;2023-04-29T02:37:32;101241.09;;;4.55;100.00
66021;BME280;52789;59.980;30.346;2023-04-29T02:39:58;101231.34;;;4.69;99.92
66021;BME280;52789;59.980;30.346;2023-04-29T02:42:23;101231.63;;;4.88;98.73
66021;BME280;52789;59.980;30.346;2023-04-29T02:44:48;101232.41;;;5.01;98.73
66021;BME280;52789;59.980;30.346;2023-04-29T02:47:14;101235.69;;;5.16;98.38
66021;BME280;52789;59.980;30.346;2023-04-29T02:49:39;101239.69;;;5.21;97.91
66021;BME280;52789;59.980;30.346;2023-04-29T02:52:04;101236.28;;;5.19;96.96
66021;BME280;52789;59.980;30.346;2023-04-29T02:54:30;101237.13;;;5.20;96.57
66021;BME280;52789;59.980;30.346;2023-04-29T02:56:55;101234.88;;;5.26;96.50
66021;BME280;52789;59.980;30.346;2023-04-29T02:59:21;101234.91;;;5.38;96.65
66021;BME280;52789;59.980;30.346;2023-04-29T03:01:46;101235.13;;;5.46;96.17
66021;BME280;52789;59.980;30.346;2023-04-29T03:04:12;101241.06;;;5.60;95.36
66021;BME280;52789;59.980;30.346;2023-04-29T03:06:37;101238.06;;;5.87;93.71
66021;BME280;52789;59.980;30.346;2023-04-29T03:09:03;101243.13;;;6.13;92.88
66021;BME280;52789;59.980;30.346;2023-04-29T03:11:28;101241.03;;;6.28;91.10
66021;BME280;52789;59.980;30.346;2023-04-29T03:13:53;101245.31;;;6.08;92.69
66021;BME280;52789;59.980;30.346;2023-04-29T03:16:19;101240.72;;;5.99;93.50
66021;BME280;52789;59.980;30.346;2023-04-29T03:18:45;101244.44;;;5.85;93.45
66021;BME280;52789;59.980;30.346;2023-04-29T03:21:10;101240.09;;;5.73;94.60
66021;BME280;52789;59.980;30.346;2023-04-29T03:23:36;101241.91;;;5.72;93.23
66021;BME280;52789;59.980;30.346;2023-04-29T03:26:04;101238.41;;;5.72;94.37
66021;BME280;52789;59.980;30.346;2023-04-29T03:28:29;101244.28;;;5.75;94.31
66021;BME280;52789;59.980;30.346;2023-04-29T03:30:54;101240.22;;;5.82;92.61
66021;BME280;52789;59.980;30.346;2023-04-29T03:33:21;101244.69;;;5.82;93.37
66021;BME280;52789;59.980;30.346;2023-04-29T03:35:46;101245.50;;;5.71;93.65
66021;BME280;52789;59.980;30.346;2023-04-29T03:38:12;101245.75;;;5.68;93.79
66021;BME280;52789;59.980;30.346;2023-04-29T03:40:37;101253.19;;;5.63;93.87
66021;BME280;52789;59.980;30.346;2023-04-29T03:43:03;101248.63;;;5.65;93.22
66021;BME280;52789;59.980;30.346;2023-04-29T03:45:28;101245.03;;;5.66;93.04
66021;BME280;52789;59.980;30.346;2023-04-29T03:47:54;101254.16;;;5.62;92.24
66021;BME280;52789;59.980;30.346;2023-04-29T03:50:20;101253.53;;;5.58;93.00
66021;BME280;52789;59.980;30.346;2023-04-29T03:52:45;101257.50;;;5.64;92.29
66021;BME280;52789;59.980;30.346;2023-04-29T03:55:10;101256.19;;;5.70;92.04
66021;BME280;52789;59.980;30.346;2023-04-29T03:57:36;101258.03;;;5.80;92.64
66021;BME280;52789;59.980;30.346;2023-04-29T04:00:02;101261.28;;;5.95;92.00
66021;BME280;52789;59.980;30.346;2023-04-29T04:02:28;101252.25;;;5.98;91.28
66021;BME280;52789;59.980;30.346;2023-04-29T04:04:53;101252.72;;;6.03;90.79
66021;BME280;52789;59.980;30.346;2023-04-29T04:07:19;101259.47;;;6.07;89.65
66021;BME280;52789;59.980;30.346;2023-04-29T04:09:44;101247.56;;;6.12;89.12
66021;BME280;52789;59.980;30.346;2023-04-29T04:12:10;101244.56;;;6.17;88.94
66021;BME280;52789;59.980;30.346;2023-04-29T04:14:35;101242.53;;;6.09;88.75
66021;BME280;52789;59.980;30.346;2023-04-29T04:17:00;101250.56;;;6.19;88.85
66021;BME280;52789;59.980;30.346;2023-04-29T04:19:26;101245.28;;;6.19;89.37
66021;BME280;52789;59.980;30.346;2023-04-29T04:21:53;101242.13;;;6.25;88.38
66021;BME280;52789;59.980;30.346;2023-04-29T04:24:19;101248.50;;;6.22;88.54
66021;BME280;52789;59.980;30.346;2023-04-29T04:26:44;101242.28;;;6.12;88.11
66021;BME280;52789;59.980;30.346;2023-04-29T04:29:09;101244.56;;;6.06;88.58
66021;BME280;52789;59.980;30.346;2023-04-29T04:31:35;101245.06;;;6.00;89.38
66021;BME280;52789;59.980;30.346;2023-04-29T04:34:01;101238.69;;;5.91;90.71
66021;BME280;52789;59.980;30.346;2023-04-29T04:36:26;101239.75;;;5.88;90.67
66021;BME280;52789;59.980;30.346;2023-04-29T04:38:52;101251.25;;;5.76;90.46
66021;BME280;52789;59.980;30.346;2023-04-29T04:41:17;101243.84;;;5.81;90.80
66021;BME280;52789;59.980;30.346;2023-04-29T04:43:46;101246.50;;;5.93;89.51
66021;BME280;52789;59.980;30.346;2023-04-29T04:46:12;101241.56;;;5.99;89.13
66021;BME280;52789;59.980;30.346;2023-04-29T04:48:38;101240.03;;;6.08;87.99
66021;BME280;52789;59.980;30.346;2023-04-29T04:51:07;101249.69;;;6.30;87.13
66021;BME280;52789;59.980;30.346;2023-04-29T04:53:33;101246.84;;;6.65;85.10
66021;BME280;52789;59.980;30.346;2023-04-29T04:56:01;101242.19;;;6.89;84.90
66021;BME280;52789;59.980;30.346;2023-04-29T04:58:27;101242.78;;;7.13;81.54
66021;BME280;52789;59.980;30.346;2023-04-29T05:00:52;101245.06;;;6.97;82.43
66021;BME280;52789;59.980;30.346;2023-04-29T05:03:17;101242.69;;;6.83;83.49
66021;BME280;52789;59.980;30.346;2023-04-29T05:05:42;101236.44;;;6.84;82.30
66021;BME280;52789;59.980;30.346;2023-04-29T05:08:08;101239.34;;;6.81;82.33
66021;BME280;52789;59.980;30.346;2023-04-29T05:10:36;101238.38;;;6.82;81.91
66021;BME280;52789;59.980;30.346;2023-04-29T05:13:02;101246.56;;;6.79;82.42
66021;BME280;52789;59.980;30.346;2023-04-29T05:15:27;101240.94;;;6.72;82.25
66021;BME280;52789;59.980;30.346;2023-04-29T05:17:52;101237.19;;;6.75;82.37
66021;BME280;52789;59.980;30.346;2023-04-29T05:20:18;101240.75;;;6.53;82.51
66021;BME280;52789;59.980;30.346;2023-04-29T05:22:44;101240.66;;;6.43;83.17
66021;BME280;52789;59.980;30.346;2023-04-29T05:25:10;101243.53;;;6.51;82.95
66021;BME280;52789;59.980;30.346;2023-04-29T05:27:35;101242.28;;;6.67;82.43
66021;BME280;52789;59.980;30.346;2023-04-29T05:30:00;101241.72;;;6.84;82.08
66021;BME280;52789;59.980;30.346;2023-04-29T05:32:26;101247.63;;;7.08;80.57
66021;BME280;52789;59.980;30.346;2023-04-29T05:34:51;101248.94;;;7.35;79.23
66021;BME280;52789;59.980;30.346;2023-04-29T05:37:17;101243.56;;;7.46;78.30
66021;BME280;52789;59.980;30.346;2023-04-29T05:39:42;101242.09;;;7.53;78.16
66021;BME280;52789;59.980;30.346;2023-04-29T05:42:07;101250.03;;;7.53;78.41
66021;BME280;52789;59.980;30.346;2023-04-29T05:44:33;101244.34;;;7.37;78.70
66021;BME280;52789;59.980;30.346;2023-04-29T05:46:58;101247.53;;;7.31;78.26
66021;BME280;52789;59.980;30.346;2023-04-29T05:49:24;101250.16;;;7.31;78.29
66021;BME280;52789;59.980;30.346;2023-04-29T05:51:49;101250.63;;;7.36;78.61
66021;BME280;52789;59.980;30.346;2023-04-29T05:54:14;101248.25;;;7.63;78.34
66021;BME280;52789;59.980;30.346;2023-04-29T05:56:40;101246.50;;;7.73;77.03
66021;BME280;52789;59.980;30.346;2023-04-29T05:59:05;101250.66;;;7.45;77.72
66021;BME280;52789;59.980;30.346;2023-04-29T06:01:31;101248.22;;;7.33;79.09
66021;BME280;52789;59.980;30.346;2023-04-29T06:03:57;101248.66;;;7.38;79.24
66021;BME280;52789;59.980;30.346;2023-04-29T06:06:22;101248.66;;;7.38;78.91
66021;BME280;52789;59.980;30.346;2023-04-29T06:08:47;101250.22;;;7.20;78.62
66021;BME280;52789;59.980;30.346;2023-04-29T06:11:13;101252.09;;;7.08;79.93
66021;BME280;52789;59.980;30.346;2023-04-29T06:13:38;101248.53;;;7.19;80.01
66021;BME280;52789;59.980;30.346;2023-04-29T06:16:04;101257.72;;;7.35;78.98
66021;BME280;52789;59.980;30.346;2023-04-29T06:18:29;101255.50;;;7.20;79.68
66021;BME280;52789;59.980;30.346;2023-04-29T06:20:55;101249.19;;;7.32;79.50
66021;BME280;52789;59.980;30.346;2023-04-29T06:23:20;101251.19;;;7.39;78.77
66021;BME280;52789;59.980;30.346;2023-04-29T06:25:45;101247.38;;;7.53;78.89
66021;BME280;52789;59.980;30.346;2023-04-29T06:28:11;101248.78;;;7.57;77.90
66021;BME280;52789;59.980;30.346;2023-04-29T06:30:36;101252.47;;;7.66;77.31
66021;BME280;52789;59.980;30.346;2023-04-29T06:33:01;101255.34;;;7.84;76.49
66021;BME280;52789;59.980;30.346;2023-04-29T06:35:27;101253.19;;;7.77;76.08
66021;BME280;52789;59.980;30.346;2023-04-29T06:37:52;101260.53;;;7.64;76.50
66021;BME280;52789;59.980;30.346;2023-04-29T06:40:18;101259.16;;;7.70;76.86
66021;BME280;52789;59.980;30.346;2023-04-29T06:42:43;101260.13;;;7.90;76.61
66021;BME280;52789;59.980;30.346;2023-04-29T06:45:09;101262.94;;;7.98;74.97
66021;BME280;52789;59.980;30.346;2023-04-29T06:47:35;101264.97;;;7.85;75.93
66021;BME280;52789;59.980;30.346;2023-04-29T06:50:00;101273.63;;;7.56;76.84
66021;BME280;52789;59.980;30.346;2023-04-29T06:52:25;101264.25;;;7.52;77.70
66021;BME280;52789;59.980;30.346;2023-04-29T06:54:51;101271.47;;;7.71;76.73
66021;BME280;52789;59.980;30.346;2023-04-29T06:57:16;101274.19;;;7.81;76.34
66021;BME280;52789;59.980;30.346;2023-04-29T06:59:41;101278.16;;;7.75;75.37
66021;BME280;52789;59.980;30.346;2023-04-29T07:02:07;101270.03;;;7.67;75.48
66021;BME280;52789;59.980;30.346;2023-04-29T07:04:32;101277.13;;;7.57;76.29
66021;BME280;52789;59.980;30.346;2023-04-29T07:06:57;101274.50;;;7.45;76.97
66021;BME280;52789;59.980;30.346;2023-04-29T07:09:23;101275.22;;;7.47;77.15
66021;BME280;52789;59.980;30.346;2023-04-29T07:11:50;101266.66;;;7.55;76.00
66021;BME280;52789;59.980;30.346;2023-04-29T07:14:15;101264.59;;;7.68;76.37
66021;BME280;52789;59.980;30.346;2023-04-29T07:16:41;101279.22;;;7.63;74.40
66021;BME280;52789;59.980;30.346;2023-04-29T07:19:06;101273.50;;;7.58;74.61
66021;BME280;52789;59.980;30.346;2023-04-29T07:21:31;101273.78;;;7.85;74.66
66021;BME280;52789;59.980;30.346;2023-04-29T07:23:57;101275.16;;;8.10;74.21
66021;BME280;52789;59.980;30.346;2023-04-29T07:26:25;101272.22;;;8.13;73.11
66021;BME280;52789;59.980;30.346;2023-04-29T07:28:50;101276.97;;;8.10;71.71
66021;BME280;52789;59.980;30.346;2023-04-29T07:31:15;101279.78;;;8.18;71.71
66021;BME280;52789;59.980;30.346;2023-04-29T07:33:41;101279.00;;;8.36;70.75
66021;BME280;52789;59.980;30.346;2023-04-29T07:36:07;101279.28;;;8.33;69.41
66021;BME280;52789;59.980;30.346;2023-04-29T07:38:33;101284.19;;;8.07;71.47
66021;BME280;52789;59.980;30.346;2023-04-29T07:40:58;101278.75;;;7.78;72.25
66021;BME280;52789;59.980;30.346;2023-04-29T07:43:24;101280.03;;;7.54;73.30
66021;BME280;52789;59.980;30.346;2023-04-29T07:45:49;101281.97;;;7.31;74.11
66021;BME280;52789;59.980;30.346;2023-04-29T07:48:17;101284.59;;;7.31;74.14
66021;BME280;52789;59.980;30.346;2023-04-29T07:50:43;101290.03;;;7.29;73.56
66021;BME280;52789;59.980;30.346;2023-04-29T07:53:09;101293.31;;;7.42;73.67
66021;BME280;52789;59.980;30.346;2023-04-29T07:55:36;101296.63;;;7.35;73.03
66021;BME280;52789;59.980;30.346;2023-04-29T07:58:01;101295.47;;;7.28;72.53
66021;BME280;52789;59.980;30.346;2023-04-29T08:00:26;101297.63;;;7.23;72.23
66021;BME280;52789;59.980;30.346;2023-04-29T08:02:55;101307.88;;;7.27;72.74
66021;BME280;52789;59.980;30.346;2023-04-29T08:05:21;101301.25;;;7.22;72.06
66021;BME280;52789;59.980;30.346;2023-04-29T08:07:47;101322.19;;;7.04;74.16
66021;BME280;52789;59.980;30.346;2023-04-29T08:10:13;101332.50;;;6.64;79.54
66021;BME280;52789;59.980;30.346;2023-04-29T08:12:38;101351.66;;;6.34;82.10
66021;BME280;52789;59.980;30.346;2023-04-29T08:15:04;101355.97;;;6.01;85.22
66021;BME280;52789;59.980;30.346;2023-04-29T08:17:29;101366.88;;;5.85;86.25
66021;BME280;52789;59.980;30.346;2023-04-29T08:19:55;101362.63;;;5.72;87.68
66021;BME280;52789;59.980;30.346;2023-04-29T08:22:20;101357.69;;;5.67;89.26
66021;BME280;52789;59.980;30.346;2023-04-29T08:24:46;101371.03;;;5.66;88.77
66021;BME280;52789;59.980;30.346;2023-04-29T08:27:12;101367.44;;;5.32;92.91
66021;BME280;52789;59.980;30.346;2023-04-29T08:29:39;101363.81;;;5.33;94.33
66021;BME280;52789;59.980;30.346;2023-04-29T08:32:04;101365.28;;;5.37;94.95
66021;BME280;52789;59.980;30.346;2023-04-29T08:34:30;101361.75;;;5.60;94.75
66021;BME280;52789;59.980;30.346;2023-04-29T08:36:56;101362.06;;;5.79;93.86
66021;BME280;52789;59.980;30.346;2023-04-29T08:39:21;101369.56;;;5.97;91.75
66021;BME280;52789;59.980;30.346;2023-04-29T08:41:46;101362.13;;;6.24;92.28
66021;BME280;52789;59.980;30.346;2023-04-29T08:44:13;101358.03;;;6.53;90.75
66021;BME280;52789;59.980;30.346;2023-04-29T08:46:40;101366.88;;;6.97;88.90
66021;BME280;52789;59.980;30.346;2023-04-29T08:49:05;101367.19;;;7.36;87.88
66021;BME280;52789;59.980;30.346;2023-04-29T08:51:31;101357.84;;;7.73;87.01
66021;BME280;52789;59.980;30.346;2023-04-29T08:53:57;101363.53;;;8.11;85.06
66021;BME280;52789;59.980;30.346;2023-04-29T08:56:23;101353.50;;;8.14;82.55
66021;BME280;52789;59.980;30.346;2023-04-29T08:58:51;101361.78;;;8.00;82.02
66021;BME280;52789;59.980;30.346;2023-04-29T09:01:22;101356.63;;;7.57;82.91
66021;BME280;52789;59.980;30.346;2023-04-29T09:04:06;101362.56;;;7.49;83.77
66021;BME280;52789;59.980;30.346;2023-04-29T09:06:33;101371.22;;;7.72;83.02
66021;BME280;52789;59.980;30.346;2023-04-29T09:08:59;101367.16;;;7.68;81.86
66021;BME280;52789;59.980;30.346;2023-04-29T09:11:26;101382.69;;;7.72;83.34
66021;BME280;52789;59.980;30.346;2023-04-29T09:13:52;101392.06;;;7.24;83.11
66021;BME280;52789;59.980;30.346;2023-04-29T09:16:22;101401.34;;;6.41;87.31
66021;BME280;52789;59.980;30.346;2023-04-29T09:18:48;101413.06;;;6.04;89.33
66021;BME280;52789;59.980;30.346;2023-04-29T09:21:21;101387.00;;;5.75;91.43
66021;BME280;52789;59.980;30.346;2023-04-29T09:23:47;101392.16;;;5.66;93.95
66021;BME280;52789;59.980;30.346;2023-04-29T09:26:12;101384.22;;;5.54;95.14
66021;BME280;52789;59.980;30.346;2023-04-29T09:28:38;101383.34;;;5.89;96.85
66021;BME280;52789;59.980;30.346;2023-04-29T09:31:09;101385.44;;;6.19;94.45
66021;BME280;52789;59.980;30.346;2023-04-29T09:33:51;101391.59;;;6.42;94.32
66021;BME280;52789;59.980;30.346;2023-04-29T09:39:02;101401.56;;;6.61;93.15
66021;BME280;52789;59.980;30.346;2023-04-29T09:41:28;101403.97;;;6.75;91.25
66021;BME280;52789;59.980;30.346;2023-04-29T09:44:12;101405.38;;;7.01;90.29
66021;BME280;52789;59.980;30.346;2023-04-29T09:46:37;101415.69;;;7.15;89.14
66021;BME280;52789;59.980;30.346;2023-04-29T09:49:03;101422.66;;;7.17;89.71
66021;BME280;52789;59.980;30.346;2023-04-29T09:51:29;101429.66;;;7.06;88.40
66021;BME280;52789;59.980;30.346;2023-04-29T09:53:58;101428.88;;;7.38;88.76
66021;BME280;52789;59.980;30.346;2023-04-29T09:56:23;101421.59;;;7.72;88.21
66021;BME280;52789;59.980;30.346;2023-04-29T09:58:53;101426.78;;;7.73;87.62
66021;BME280;52789;59.980;30.346;2023-04-29T10:01:18;101428.28;;;7.34;86.21
66021;BME280;52789;59.980;30.346;2023-04-29T10:03:45;101432.34;;;6.95;88.43
66021;BME280;52789;59.980;30.346;2023-04-29T10:06:12;101426.81;;;6.98;88.86
66021;BME280;52789;59.980;30.346;2023-04-29T10:08:38;101426.09;;;6.85;89.36
66021;BME280;52789;59.980;30.346;2023-04-29T10:11:05;101435.34;;;6.91;90.77
66021;BME280;52789;59.980;30.346;2023-04-29T10:13:30;101438.50;;;6.96;89.91
66021;BME280;52789;59.980;30.346;2023-04-29T10:18:43;101432.63;;;6.70;89.19
66021;BME280;52789;59.980;30.346;2023-04-29T10:21:12;101437.66;;;6.84;89.43
66021;BME280;52789;59.980;30.346;2023-04-29T10:23:38;101439.69;;;7.03;90.24
66021;BME280;52789;59.980;30.346;2023-04-29T10:26:03;101435.56;;;7.10;87.58
66021;BME280;52789;59.980;30.346;2023-04-29T10:28:30;101440.59;;;7.13;88.28
66021;BME280;52789;59.980;30.346;2023-04-29T10:30:56;101439.09;;;6.99;87.57
66021;BME280;52789;59.980;30.346;2023-04-29T10:33:22;101441.19;;;7.17;87.12
66021;BME280;52789;59.980;30.346;2023-04-29T10:35:48;101437.78;;;7.37;87.02
66021;BME280;52789;59.980;30.346;2023-04-29T10:41:22;101445.78;;;7.26;79.01
66021;BME280;52789;59.980;30.346;2023-04-29T10:43:52;101446.31;;;6.97;81.11
66021;BME280;52789;59.980;30.346;2023-04-29T10:46:21;101447.84;;;7.11;81.97
66021;BME280;52789;59.980;30.346;2023-04-29T10:48:49;101454.19;;;7.20;82.19
66021;BME280;52789;59.980;30.346;2023-04-29T10:51:29;101458.50;;;7.32;83.76
66021;BME280;52789;59.980;30.346;2023-04-29T10:54:08;101457.34;;;7.13;78.68
66021;BME280;52789;59.980;30.346;2023-04-29T10:59:15;101458.53;;;7.21;80.71
66021;BME280;52789;59.980;30.346;2023-04-29T11:04:06;101461.81;;;6.91;74.56
66021;BME280;52789;59.980;30.346;2023-04-29T11:09:02;101470.63;;;6.80;75.83
66021;BME280;52789;59.980;30.346;2023-04-29T11:11:44;101472.06;;;6.84;74.30
66021;BME280;52789;59.980;30.346;2023-04-29T11:14:11;101465.28;;;7.13;73.81
66021;BME280;52789;59.980;30.346;2023-04-29T11:16:37;101465.75;;;7.30;74.22
66021;BME280;52789;59.980;30.346;2023-04-29T11:19:03;101456.31;;;7.37;74.27
66021;BME280;52789;59.980;30.346;2023-04-29T11:21:28;101468.91;;;7.24;71.71
66021;BME280;52789;59.980;30.346;2023-04-29T11:23:55;101475.16;;;7.11;71.97
66021;BME280;52789;59.980;30.346;2023-04-29T11:26:22;101473.59;;;7.09;72.55
66021;BME280;52789;59.980;30.346;2023-04-29T11:28:48;101467.56;;;7.18;72.36
66021;BME280;52789;59.980;30.346;2023-04-29T11:31:15;101466.25;;;7.24;72.74
66021;BME280;52789;59.980;30.346;2023-04-29T11:33:41;101468.88;;;7.35;72.50
66021;BME280;52789;59.980;30.346;2023-04-29T11:36:06;101459.09;;;7.35;70.63
66021;BME280;52789;59.980;30.346;2023-04-29T11:38:33;101470.16;;;7.40;73.30
66021;BME280;52789;59.980;30.346;2023-04-29T11:41:00;101472.16;;;7.59;71.82
66021;BME280;52789;59.980;30.346;2023-04-29T11:43:25;101477.00;;;7.86;70.49
66021;BME280;52789;59.980;30.346;2023-04-29T11:45:51;101474.16;;;7.99;69.62
66021;BME280;52789;59.980;30.346;2023-04-29T11:48:19;101481.13;;;8.00;70.57
66021;BME280;52789;59.980;30.346;2023-04-29T11:50:45;101482.38;;;7.96;70.70
66021;BME280;52789;59.980;30.346;2023-04-29T11:53:11;101477.84;;;8.07;71.29
66021;BME280;52789;59.980;30.346;2023-04-29T11:55:37;101475.91;;;8.30;71.66
66021;BME280;52789;59.980;30.346;2023-04-29T11:58:05;101475.25;;;8.59;69.48
66021;BME280;52789;59.980;30.346;2023-04-29T12:00:30;101472.44;;;8.51;69.65
66021;BME280;52789;59.980;30.346;2023-04-29T12:02:56;101474.69;;;8.34;69.14
66021;BME280;52789;59.980;30.346;2023-04-29T12:05:24;101484.94;;;8.39;70.31
66021;BME280;52789;59.980;30.346;2023-04-29T12:07:49;101486.84;;;8.58;70.27
66021;BME280;52789;59.980;30.346;2023-04-29T12:10:15;101483.94;;;8.61;69.98
66021;BME280;52789;59.980;30.346;2023-04-29T12:12:40;101487.66;;;8.49;67.58
66021;BME280;52789;59.980;30.346;2023-04-29T12:15:08;101491.03;;;7.98;69.60
66021;BME280;52789;59.980;30.346;2023-04-29T12:17:34;101481.91;;;7.91;70.38
66021;BME280;52789;59.980;30.346;2023-04-29T12:19:59;101479.06;;;7.83;70.84
66021;BME280;52789;59.980;30.346;2023-04-29T12:22:31;101482.78;;;7.80;71.23
66021;BME280;52789;59.980;30.346;2023-04-29T12:24:57;101488.31;;;7.88;70.95
66021;BME280;52789;59.980;30.346;2023-04-29T12:27:22;101483.09;;;7.98;68.60
66021;BME280;52789;59.980;30.346;2023-04-29T12:29:47;101487.75;;;8.05;67.68
66021;BME280;52789;59.980;30.346;2023-04-29T12:32:16;101487.41;;;7.99;67.63
66021;BME280;52789;59.980;30.346;2023-04-29T12:34:44;101488.78;;;7.93;67.25
66021;BME280;52789;59.980;30.346;2023-04-29T12:37:10;101490.38;;;7.85;68.28
66021;BME280;52789;59.980;30.346;2023-04-29T12:39:37;101485.81;;;7.75;67.98
66021;BME280;52789;59.980;30.346;2023-04-29T12:42:02;101501.25;;;7.82;69.00
66021;BME280;52789;59.980;30.346;2023-04-29T12:44:34;101500.50;;;7.80;68.81
66021;BME280;52789;59.980;30.346;2023-04-29T12:47:06;101493.16;;;7.83;68.71
66021;BME280;52789;59.980;30.346;2023-04-29T12:49:33;101484.31;;;7.94;69.39
66021;BME280;52789;59.980;30.346;2023-04-29T12:51:58;101490.78;;;8.01;67.64
66021;BME280;52789;59.980;30.346;2023-04-29T12:54:24;101489.06;;;8.11;68.88
66021;BME280;52789;59.980;30.346;2023-04-29T12:56:49;101485.31;;;8.14;68.14
66021;BME280;52789;59.980;30.346;2023-04-29T12:59:15;101500.38;;;8.13;67.78
66021;BME280;52789;59.980;30.346;2023-04-29T13:01:41;101478.75;;;8.18;67.86
66021;BME280;52789;59.980;30.346;2023-04-29T13:04:06;101483.41;;;8.25;66.27
66021;BME280;52789;59.980;30.346;2023-04-29T13:06:33;101477.44;;;8.33;66.88
66021;BME280;52789;59.980;30.346;2023-04-29T13:08:58;101478.78;;;8.38;64.72
66021;BME280;52789;59.980;30.346;2023-04-29T13:11:24;101489.88;;;8.32;66.04
66021;BME280;52789;59.980;30.346;2023-04-29T13:13:49;101489.44;;;8.27;66.52
66021;BME280;52789;59.980;30.346;2023-04-29T13:16:15;101491.44;;;8.14;65.33